createdAt,value
2018-05-04T00:01:43.940Z,4.68
2018-05-04T00:04:09.953Z,3.53
2018-05-04T00:06:36.006Z,4.53
2018-05-04T00:09:02.069Z,4.37
2018-05-04T00:11:28.094Z,4.47
2018-05-04T00:13:54.112Z,4.05
2018-05-04T00:16:20.161Z,4.75
2018-05-04T00:18:46.194Z,4.62
2018-05-04T00:21:12.184Z,3.70
2018-05-04T00:23:38.185Z,4.70
2018-05-04T00:26:04.290Z,4.00
2018-05-04T00:28:30.292Z,5.22
2018-05-04T00:30:56.276Z,5.40
2018-05-04T00:33:22.296Z,4.95
2018-05-04T00:35:48.281Z,5.22
2018-05-04T00:38:14.370Z,4.20
2018-05-04T00:40:40.313Z,4.82
2018-05-04T00:43:06.332Z,3.67
2018-05-04T00:45:32.389Z,6.12
2018-05-04T00:47:58.398Z,4.93
2018-05-04T00:50:24.401Z,4.55
2018-05-04T00:52:50.448Z,4.65
2018-05-04T00:55:16.456Z,4.93
2018-05-04T00:57:42.506Z,5.12
2018-05-04T01:00:08.523Z,5.15
2018-05-04T01:02:34.580Z,5.10
2018-05-04T01:05:00.591Z,4.82
2018-05-04T01:07:26.591Z,4.57
2018-05-04T01:09:52.584Z,5.00
2018-05-04T01:12:18.585Z,4.75
2018-05-04T01:14:44.579Z,5.10
2018-05-04T01:17:10.589Z,4.78
2018-05-04T01:19:36.612Z,5.00
2018-05-04T01:22:02.634Z,5.43
2018-05-04T01:24:28.706Z,5.10
2018-05-04T01:26:54.706Z,3.70
2018-05-04T01:29:20.708Z,5.20
2018-05-04T01:31:46.745Z,5.40
2018-05-04T01:34:12.937Z,3.95
2018-05-04T01:36:38.944Z,5.55
2018-05-04T01:39:04.977Z,4.62
2018-05-04T01:41:30.998Z,4.85
2018-05-04T01:43:57.181Z,5.32
2018-05-04T01:46:23.182Z,4.45
2018-05-04T01:48:49.177Z,3.75
2018-05-04T01:51:15.220Z,4.85
2018-05-04T01:53:41.282Z,5.00
2018-05-04T01:56:07.280Z,5.20
2018-05-04T01:58:33.408Z,5.28
2018-05-04T02:00:59.721Z,4.60
2018-05-04T02:03:26.107Z,4.72
2018-05-04T02:05:52.090Z,4.20
2018-05-04T02:08:18.328Z,5.10
2018-05-04T02:10:44.328Z,4.12
2018-05-04T02:13:10.343Z,5.03
2018-05-04T02:15:36.349Z,4.15
2018-05-04T02:18:02.342Z,5.07
2018-05-04T02:20:28.365Z,4.00
2018-05-04T02:22:54.348Z,5.57
2018-05-04T02:25:20.401Z,6.20
2018-05-04T02:27:46.394Z,6.07
2018-05-04T02:30:13.185Z,6.28
2018-05-04T02:32:39.381Z,5.18
2018-05-04T02:35:05.587Z,5.75
2018-05-04T02:37:31.562Z,6.00
2018-05-04T02:39:57.577Z,5.72
2018-05-04T02:42:23.588Z,6.35
2018-05-04T02:44:49.707Z,6.10
2018-05-04T02:47:15.726Z,6.32
2018-05-04T02:49:41.732Z,5.95
2018-05-04T02:52:08.642Z,5.90
2018-05-04T02:54:34.689Z,6.05
2018-05-04T02:57:00.677Z,5.28
2018-05-04T02:59:26.704Z,5.78
2018-05-04T03:01:52.742Z,5.87
2018-05-04T03:04:18.761Z,4.65
2018-05-04T03:06:44.761Z,5.72
2018-05-04T03:09:10.773Z,6.18
2018-05-04T03:11:36.818Z,5.40
2018-05-04T03:14:03.058Z,5.75
2018-05-04T03:16:29.776Z,5.68
2018-05-04T03:18:55.784Z,5.70
2018-05-04T03:21:21.784Z,6.07
2018-05-04T03:23:48.414Z,5.93
2018-05-04T03:26:14.421Z,6.05
2018-05-04T03:28:40.419Z,5.70
2018-05-04T03:31:06.439Z,6.05
2018-05-04T03:33:32.490Z,5.75
2018-05-04T03:35:58.499Z,5.97
2018-05-04T03:38:24.508Z,5.72
2018-05-04T03:40:50.803Z,6.80
2018-05-04T03:43:16.814Z,5.68
2018-05-04T03:45:42.883Z,6.30
2018-05-04T03:48:08.870Z,6.25
2018-05-04T03:50:34.916Z,6.47
2018-05-04T03:53:00.975Z,6.03
2018-05-04T03:55:26.989Z,6.12
2018-05-04T03:58:05.461Z,6.50
2018-05-04T04:00:43.563Z,6.20
2018-05-04T04:03:21.656Z,6.53
2018-05-04T04:05:47.709Z,7.07
2018-05-04T04:08:13.711Z,6.80
2018-05-04T04:10:39.757Z,8.05
2018-05-04T04:13:05.777Z,7.68
2018-05-04T04:15:31.755Z,8.57
2018-05-04T04:17:57.753Z,8.02
2018-05-04T04:20:23.821Z,7.70
2018-05-04T04:22:49.843Z,7.18
2018-05-04T04:25:15.850Z,8.25
2018-05-04T04:27:41.827Z,7.57
2018-05-04T04:30:07.832Z,8.15
2018-05-04T04:32:33.841Z,8.20
2018-05-04T04:34:59.932Z,8.38
2018-05-04T04:37:25.961Z,8.07
2018-05-04T04:39:51.949Z,7.97
2018-05-04T04:42:17.949Z,8.55
2018-05-04T04:44:43.937Z,8.23
2018-05-04T04:47:09.972Z,9.35
2018-05-04T04:49:35.995Z,8.82
2018-05-04T04:52:02.014Z,9.10
2018-05-04T04:54:35.110Z,9.57
2018-05-04T04:57:01.173Z,9.52
2018-05-04T04:59:27.220Z,8.65
2018-05-04T05:01:53.540Z,10.05
2018-05-04T05:04:19.697Z,8.85
2018-05-04T05:06:45.696Z,7.32
2018-05-04T05:09:11.691Z,8.93
2018-05-04T05:11:37.728Z,8.98
2018-05-04T05:14:03.726Z,9.40
2018-05-04T05:16:29.705Z,10.52
2018-05-04T05:18:56.238Z,9.38
2018-05-04T05:21:22.259Z,9.98
2018-05-04T05:23:48.624Z,9.38
2018-05-04T05:26:14.640Z,7.40
2018-05-04T05:28:40.634Z,8.27
2018-05-04T05:31:06.655Z,6.97
2018-05-04T05:33:32.658Z,8.98
2018-05-04T05:35:58.720Z,9.02
2018-05-04T05:38:24.828Z,8.80
2018-05-04T05:40:50.850Z,6.78
2018-05-04T05:43:16.836Z,8.18
2018-05-04T05:45:43.161Z,7.20
2018-05-04T05:48:09.329Z,6.80
2018-05-04T05:50:35.685Z,7.30
2018-05-04T05:53:01.760Z,6.43
2018-05-04T05:55:27.836Z,7.00
2018-05-04T05:57:53.849Z,5.85
2018-05-04T06:00:20.030Z,6.20
2018-05-04T06:02:46.048Z,5.87
2018-05-04T06:05:12.053Z,6.10
2018-05-04T06:07:38.093Z,6.78
2018-05-04T06:10:04.116Z,5.87
2018-05-04T06:12:30.189Z,5.25
2018-05-04T06:14:56.251Z,5.05
2018-05-04T06:17:22.235Z,5.17
2018-05-04T06:19:48.309Z,4.62
2018-05-04T06:22:14.514Z,5.20
2018-05-04T06:24:40.525Z,5.75
2018-05-04T06:27:06.516Z,5.12
2018-05-04T06:29:32.569Z,4.97
2018-05-04T06:31:58.600Z,5.03
2018-05-04T06:34:24.680Z,4.95
2018-05-04T06:36:50.716Z,4.75
2018-05-04T06:39:16.753Z,4.90
2018-05-04T06:41:42.775Z,4.80
2018-05-04T06:44:08.796Z,4.55
2018-05-04T06:46:34.907Z,4.60
2018-05-04T06:49:00.910Z,4.90
2018-05-04T06:51:27.024Z,4.72
2018-05-04T06:53:53.147Z,5.62
2018-05-04T06:56:19.114Z,5.13
2018-05-04T06:58:45.156Z,5.07
2018-05-04T07:01:11.829Z,5.75
2018-05-04T07:03:37.832Z,5.80
2018-05-04T07:06:03.940Z,5.03
2018-05-04T07:08:29.971Z,5.43
2018-05-04T07:10:56.039Z,5.72
2018-05-04T07:13:22.112Z,5.23
2018-05-04T07:15:48.141Z,5.93
2018-05-04T07:18:14.266Z,5.50
2018-05-04T07:20:40.331Z,5.57
2018-05-04T07:23:06.390Z,5.70
2018-05-04T07:25:32.424Z,5.53
2018-05-04T07:27:58.561Z,6.23
2018-05-04T07:30:24.619Z,5.93
2018-05-04T07:32:50.656Z,6.40
2018-05-04T07:35:16.673Z,6.17
2018-05-04T07:37:42.889Z,5.70
2018-05-04T07:40:08.993Z,6.27
2018-05-04T07:42:35.038Z,6.00
2018-05-04T07:45:01.091Z,5.37
2018-05-04T07:47:27.184Z,5.67
2018-05-04T07:49:53.267Z,5.73
2018-05-04T07:52:19.417Z,5.57
2018-05-04T07:54:45.438Z,5.80
2018-05-04T07:57:11.480Z,5.43
2018-05-04T07:59:37.564Z,5.47
2018-05-04T08:02:03.692Z,5.37
2018-05-04T08:04:29.724Z,5.43
2018-05-04T08:06:55.774Z,5.27
2018-05-04T08:09:21.824Z,5.63
2018-05-04T08:11:49.682Z,5.67
2018-05-04T08:14:15.813Z,5.63
2018-05-04T08:16:41.837Z,5.23
2018-05-04T08:19:07.919Z,4.77
2018-05-04T08:21:33.970Z,4.23
2018-05-04T08:24:00.072Z,6.47
2018-05-04T08:26:26.043Z,5.97
2018-05-04T08:28:52.061Z,3.83
2018-05-04T08:31:18.122Z,3.70
2018-05-04T08:33:44.184Z,3.27
2018-05-04T08:36:10.220Z,3.87
2018-05-04T08:38:36.305Z,3.13
2018-05-04T08:41:02.339Z,3.60
2018-05-04T08:43:29.201Z,3.73
2018-05-04T08:45:55.292Z,3.37
2018-05-04T08:48:23.944Z,2.80
2018-05-04T08:50:50.012Z,3.27
2018-05-04T08:53:16.027Z,3.40
2018-05-04T08:55:42.139Z,3.00
2018-05-04T08:58:08.156Z,3.37
2018-05-04T09:00:34.222Z,3.00
2018-05-04T09:03:00.240Z,2.80
2018-05-04T09:05:26.420Z,2.77
2018-05-04T09:07:52.357Z,2.50
2018-05-04T09:10:18.851Z,2.60
2018-05-04T09:12:44.943Z,2.60
2018-05-04T09:15:11.733Z,2.70
2018-05-04T09:17:37.739Z,2.50
2018-05-04T09:20:03.812Z,2.43
2018-05-04T09:22:29.841Z,3.20
2018-05-04T09:24:55.885Z,2.40
2018-05-04T09:27:21.940Z,2.50
2018-05-04T09:29:47.999Z,2.60
2018-05-04T09:32:14.023Z,2.60
2018-05-04T09:34:40.060Z,4.50
2018-05-04T09:37:06.089Z,2.87
2018-05-04T09:39:32.150Z,2.30
2018-05-04T09:41:58.195Z,3.03
2018-05-04T09:44:24.184Z,3.60
2018-05-04T09:46:50.217Z,3.00
2018-05-04T09:49:16.306Z,2.90
2018-05-04T09:51:42.433Z,3.27
2018-05-04T09:54:08.521Z,3.10
2018-05-04T09:56:34.622Z,2.90
2018-05-04T09:59:00.786Z,3.10
2018-05-04T10:01:26.802Z,3.10
2018-05-04T10:03:52.825Z,3.23
2018-05-04T10:08:51.565Z,2.83
2018-05-04T10:11:17.613Z,2.97
2018-05-04T10:13:44.195Z,3.00
2018-05-04T10:16:10.341Z,2.73
2018-05-04T10:18:36.333Z,3.63
2018-05-04T10:21:02.397Z,3.40
2018-05-04T10:23:28.416Z,3.20
2018-05-04T10:25:54.440Z,3.20
2018-05-04T10:28:20.485Z,3.80
2018-05-04T10:30:46.492Z,3.67
2018-05-04T10:33:12.549Z,2.63
2018-05-04T10:35:38.599Z,3.00
2018-05-04T10:38:04.711Z,3.57
2018-05-04T10:40:30.816Z,2.70
2018-05-04T10:42:56.846Z,3.13
2018-05-04T10:45:22.925Z,3.80
2018-05-04T10:47:48.968Z,3.50
2018-05-04T10:50:15.092Z,3.93
2018-05-04T10:52:41.133Z,3.63
2018-05-04T10:55:07.229Z,3.40
2018-05-04T10:57:33.339Z,3.60
2018-05-04T10:59:59.581Z,3.17
2018-05-04T11:02:25.669Z,3.97
2018-05-04T11:04:51.774Z,3.17
2018-05-04T11:07:17.794Z,4.23
2018-05-04T11:09:43.785Z,3.83
2018-05-04T11:12:09.936Z,4.87
2018-05-04T11:14:35.931Z,4.20
2018-05-04T11:17:01.966Z,4.60
2018-05-04T11:19:28.087Z,3.80
2018-05-04T11:21:54.129Z,3.43
2018-05-04T11:24:20.144Z,3.87
2018-05-04T11:26:46.473Z,3.77
2018-05-04T11:29:12.485Z,4.10
2018-05-04T11:31:38.511Z,4.07
2018-05-04T11:34:04.521Z,3.83
2018-05-04T11:36:30.541Z,4.17
2018-05-04T11:38:56.583Z,4.60
2018-05-04T11:41:22.637Z,4.10
2018-05-04T11:43:48.818Z,4.07
2018-05-04T11:46:14.940Z,3.97
2018-05-04T11:48:41.106Z,4.50
2018-05-04T11:51:07.152Z,4.50
2018-05-04T11:53:33.273Z,4.43
2018-05-04T11:55:59.371Z,4.17
2018-05-04T11:58:25.423Z,4.00
2018-05-04T12:00:51.444Z,4.20
2018-05-04T12:03:17.440Z,3.90
2018-05-04T12:05:44.311Z,3.83
2018-05-04T12:08:10.326Z,3.90
2018-05-04T12:10:36.359Z,3.67
2018-05-04T12:13:02.416Z,4.23
2018-05-04T12:15:28.464Z,4.13
2018-05-04T12:20:27.363Z,4.30
2018-05-04T12:22:54.160Z,3.80
2018-05-04T12:25:20.122Z,4.40
2018-05-04T12:27:46.135Z,4.10
2018-05-04T12:30:12.189Z,4.07
2018-05-04T12:32:38.367Z,3.63
2018-05-04T12:35:04.407Z,4.17
2018-05-04T12:37:30.475Z,4.20
2018-05-04T12:39:56.511Z,4.07
2018-05-04T12:42:22.525Z,4.30
2018-05-04T12:44:48.528Z,4.30
2018-05-04T12:47:14.540Z,4.30
2018-05-04T12:49:40.557Z,3.73
2018-05-04T12:52:06.599Z,3.87
2018-05-04T12:54:33.408Z,4.00
2018-05-04T12:56:59.497Z,3.80
2018-05-04T12:59:25.583Z,3.80
2018-05-04T13:01:51.562Z,3.80
2018-05-04T13:04:17.580Z,3.67
2018-05-04T13:06:43.653Z,4.00
2018-05-04T13:09:09.872Z,3.57
2018-05-04T13:11:35.931Z,4.00
2018-05-04T13:14:02.055Z,3.50
2018-05-04T13:16:28.209Z,3.50
2018-05-04T13:18:54.248Z,3.77
2018-05-04T13:21:20.308Z,3.50
2018-05-04T13:23:46.386Z,3.30
2018-05-04T13:26:12.494Z,3.40
2018-05-04T13:28:38.599Z,3.30
2018-05-04T13:31:04.624Z,3.27
2018-05-04T13:33:30.751Z,3.33
2018-05-04T13:35:57.316Z,3.97
2018-05-04T13:38:23.446Z,3.17
2018-05-04T13:40:49.458Z,3.90
2018-05-04T13:43:22.839Z,3.50
2018-05-04T13:45:48.884Z,3.77
2018-05-04T13:48:14.907Z,3.57
2018-05-04T13:50:41.072Z,4.00
2018-05-04T13:53:07.139Z,3.93
2018-05-04T13:55:33.452Z,4.10
2018-05-04T13:57:59.401Z,4.00
2018-05-04T14:00:25.422Z,4.20
2018-05-04T14:02:51.635Z,4.47
2018-05-04T14:05:17.778Z,4.23
2018-05-04T14:07:43.797Z,4.87
2018-05-04T14:10:09.803Z,4.27
2018-05-04T14:12:35.973Z,4.23
2018-05-04T14:15:02.018Z,4.40
2018-05-04T14:17:28.077Z,4.00
2018-05-04T14:19:54.104Z,4.17
2018-05-04T14:22:20.124Z,4.07
2018-05-04T14:24:46.196Z,4.10
2018-05-04T14:27:12.272Z,3.73
2018-05-04T14:29:38.278Z,4.30
2018-05-04T14:32:04.270Z,4.20
2018-05-04T14:34:30.327Z,4.77
2018-05-04T14:36:56.363Z,4.40
2018-05-04T14:39:22.371Z,4.10
2018-05-04T14:41:48.405Z,3.77
2018-05-04T14:44:14.460Z,3.40
2018-05-04T14:46:40.490Z,3.80
2018-05-04T14:49:06.533Z,4.43
2018-05-04T14:51:32.608Z,4.30
2018-05-04T14:53:58.626Z,4.53
2018-05-04T14:56:24.857Z,4.83
2018-05-04T14:58:50.920Z,3.97
2018-05-04T15:01:16.985Z,3.90
2018-05-04T15:03:43.041Z,4.13
2018-05-04T15:06:09.097Z,4.53
2018-05-04T15:08:35.118Z,4.20
2018-05-04T15:11:01.133Z,4.27
2018-05-04T15:13:27.250Z,4.90
2018-05-04T15:15:53.319Z,5.50
2018-05-04T15:18:19.372Z,4.50
2018-05-04T15:20:45.386Z,4.47
2018-05-04T15:23:11.477Z,4.90
2018-05-04T15:25:37.597Z,5.33
2018-05-04T15:28:03.635Z,5.80
2018-05-04T15:30:29.689Z,4.80
2018-05-04T15:32:55.833Z,4.63
2018-05-04T15:35:22.651Z,5.17
2018-05-04T15:41:00.349Z,5.37
2018-05-04T15:43:26.356Z,5.50
2018-05-04T15:45:52.435Z,5.27
2018-05-04T15:48:24.346Z,5.10
2018-05-04T15:53:50.967Z,5.03
2018-05-04T15:56:17.179Z,5.33
2018-05-04T15:58:43.345Z,4.50
2018-05-04T16:01:09.436Z,5.33
2018-05-04T16:03:35.458Z,5.23
2018-05-04T16:06:09.424Z,4.47
2018-05-04T16:08:35.577Z,4.87
2018-05-04T16:11:02.481Z,5.50
2018-05-04T16:13:28.674Z,4.93
2018-05-04T16:15:54.868Z,4.60
2018-05-04T16:18:20.931Z,5.20
2018-05-04T16:20:47.114Z,5.20
2018-05-04T16:23:13.251Z,4.40
2018-05-04T16:25:39.375Z,5.00
2018-05-04T16:28:05.458Z,4.43
2018-05-04T16:30:31.602Z,4.27
2018-05-04T16:32:57.744Z,3.80
2018-05-04T16:35:23.826Z,3.77
2018-05-04T16:37:49.940Z,3.97
2018-05-04T16:40:15.979Z,4.53
2018-05-04T16:42:42.003Z,3.83
2018-05-04T16:45:08.139Z,3.60
2018-05-04T16:47:41.106Z,3.27
2018-05-04T16:50:07.282Z,3.87
2018-05-04T16:52:33.407Z,3.33
2018-05-04T16:54:59.430Z,3.80
2018-05-04T16:57:25.476Z,3.00
2018-05-04T16:59:51.558Z,3.23
2018-05-04T17:02:17.713Z,3.03
2018-05-04T17:04:43.766Z,3.30
2018-05-04T17:07:09.820Z,2.93
2018-05-04T17:09:36.053Z,3.10
2018-05-04T17:12:02.126Z,3.10
2018-05-04T17:14:28.189Z,2.77
2018-05-04T17:16:54.232Z,2.80
2018-05-04T17:19:20.287Z,3.83
2018-05-04T17:21:46.382Z,3.17
2018-05-04T17:24:12.560Z,2.83
2018-05-04T17:26:38.645Z,2.90
2018-05-04T17:29:04.717Z,3.30
2018-05-04T17:31:30.809Z,3.17
2018-05-04T17:33:56.859Z,3.03
2018-05-04T17:36:22.933Z,3.43
2018-05-04T17:38:49.059Z,3.10
2018-05-04T17:41:15.113Z,3.30
2018-05-04T17:43:41.971Z,3.50
2018-05-04T17:46:07.979Z,3.40
2018-05-04T17:48:34.077Z,3.20
2018-05-04T17:51:00.127Z,3.80
2018-05-04T17:53:26.168Z,3.60
2018-05-04T17:55:52.208Z,3.20
2018-05-04T17:58:18.262Z,3.80
2018-05-04T18:00:44.300Z,3.30
2018-05-04T18:03:10.444Z,2.70
2018-05-04T18:05:36.469Z,3.20
2018-05-04T18:08:02.490Z,3.20
2018-05-04T18:10:29.325Z,3.10
2018-05-04T18:12:56.020Z,2.70
2018-05-04T18:15:22.051Z,3.10
2018-05-04T18:17:48.081Z,3.40
2018-05-04T18:20:14.104Z,3.23
2018-05-04T18:22:40.120Z,3.20
2018-05-04T18:25:06.136Z,3.50
2018-05-04T18:27:32.190Z,3.23
2018-05-04T18:29:58.236Z,2.80
2018-05-04T18:32:24.248Z,3.00
2018-05-04T18:34:50.333Z,3.20
2018-05-04T18:37:16.368Z,3.50
2018-05-04T18:39:42.381Z,2.60
2018-05-04T18:42:08.417Z,2.90
2018-05-04T18:44:34.516Z,2.90
2018-05-04T18:47:00.639Z,3.00
2018-05-04T18:49:26.678Z,2.80
2018-05-04T18:51:53.147Z,2.77
2018-05-04T18:54:19.183Z,3.00
2018-05-04T18:56:45.461Z,3.47
2018-05-04T18:59:11.489Z,2.77
2018-05-04T19:01:37.602Z,3.13
2018-05-04T19:04:03.709Z,2.93
2018-05-04T19:06:29.732Z,3.90
2018-05-04T19:08:55.733Z,3.83
2018-05-04T19:11:21.928Z,4.20
2018-05-04T19:13:48.129Z,3.10
2018-05-04T19:16:14.256Z,3.33
2018-05-04T19:18:40.300Z,3.30
2018-05-04T19:21:06.314Z,3.20
2018-05-04T19:23:32.347Z,3.20
2018-05-04T19:25:58.437Z,3.27
2018-05-04T19:28:24.586Z,3.23
2018-05-04T19:30:50.572Z,3.17
2018-05-04T19:33:16.589Z,3.60
2018-05-04T19:35:42.939Z,3.63
2018-05-04T19:38:09.053Z,3.50
2018-05-04T19:40:35.204Z,3.87
2018-05-04T19:43:01.372Z,3.93
2018-05-04T19:45:27.460Z,3.80
2018-05-04T19:47:53.544Z,4.70
2018-05-04T19:50:19.689Z,4.40
2018-05-04T19:52:45.794Z,4.37
2018-05-04T19:55:11.895Z,3.67
2018-05-04T19:57:37.948Z,3.70
2018-05-04T20:00:04.072Z,3.73
2018-05-04T20:02:30.302Z,3.60
2018-05-04T20:04:56.502Z,3.77
2018-05-04T20:07:22.630Z,3.47
2018-05-04T20:09:50.468Z,3.77
2018-05-04T20:12:16.580Z,3.30
2018-05-04T20:14:42.617Z,3.67
2018-05-04T20:17:08.717Z,3.63
2018-05-04T20:19:34.757Z,3.53
2018-05-04T20:22:00.836Z,4.00
2018-05-04T20:24:26.903Z,3.20
2018-05-04T20:26:53.138Z,3.87
2018-05-04T20:29:19.335Z,3.53
2018-05-04T20:31:46.077Z,3.70
2018-05-04T20:34:12.252Z,4.37
2018-05-04T20:36:38.441Z,4.03
2018-05-04T20:39:04.551Z,3.70
2018-05-04T20:41:31.268Z,4.00
2018-05-04T20:43:57.408Z,3.20
2018-05-04T20:46:23.539Z,3.50
2018-05-04T20:48:49.707Z,3.50
2018-05-04T20:51:15.826Z,3.90
2018-05-04T20:53:41.900Z,3.67
2018-05-04T20:56:07.941Z,3.77
2018-05-04T20:58:33.961Z,3.70
2018-05-04T21:00:59.977Z,3.97
2018-05-04T21:03:26.004Z,3.87
2018-05-04T21:05:52.080Z,3.80
2018-05-04T21:08:18.182Z,3.90
2018-05-04T21:10:44.283Z,3.67
2018-05-04T21:13:10.674Z,3.50
2018-05-04T21:15:36.908Z,3.53
2018-05-04T21:18:02.968Z,4.07
2018-05-04T21:20:28.996Z,3.97
2018-05-04T21:22:55.096Z,4.10
2018-05-04T21:25:21.233Z,3.50
2018-05-04T21:27:47.342Z,3.80
2018-05-04T21:30:13.475Z,3.87
2018-05-04T21:32:39.491Z,3.73
2018-05-04T21:35:05.530Z,3.97
2018-05-04T21:37:31.944Z,3.50
2018-05-04T21:39:58.074Z,4.37
2018-05-04T21:42:24.075Z,3.63
2018-05-04T21:44:50.112Z,3.83
2018-05-04T21:47:16.304Z,3.83
2018-05-04T21:49:42.362Z,3.67
2018-05-04T21:52:08.515Z,3.80
2018-05-04T21:54:34.788Z,4.00
2018-05-04T21:57:00.833Z,3.90
2018-05-04T21:59:26.964Z,4.43
2018-05-04T22:01:53.003Z,4.17
2018-05-04T22:04:19.049Z,4.23
2018-05-04T22:06:45.172Z,3.80
2018-05-04T22:09:11.476Z,4.20
2018-05-04T22:11:37.841Z,4.93
2018-05-04T22:14:04.062Z,4.30
2018-05-04T22:16:30.159Z,4.22
2018-05-04T22:18:56.395Z,4.05
2018-05-04T22:21:22.466Z,4.23
2018-05-04T22:23:48.572Z,4.70
2018-05-04T22:26:14.641Z,4.03
2018-05-04T22:28:40.880Z,4.20
2018-05-04T22:31:07.065Z,4.17
2018-05-04T22:33:33.190Z,4.20
2018-05-04T22:35:59.253Z,4.35
2018-05-04T22:38:25.302Z,4.25
2018-05-04T22:40:51.416Z,4.60
2018-05-04T22:43:17.510Z,4.77
2018-05-04T22:45:43.574Z,5.50
2018-05-04T22:48:09.602Z,4.50
2018-05-04T22:50:35.776Z,5.05
2018-05-04T22:53:01.905Z,4.82
2018-05-04T22:55:27.972Z,4.57
2018-05-04T22:57:53.989Z,4.53
2018-05-04T23:00:20.137Z,4.60
2018-05-04T23:02:46.208Z,5.10
2018-05-04T23:05:12.259Z,4.82
2018-05-04T23:07:38.335Z,4.82
2018-05-04T23:10:04.417Z,5.28
2018-05-04T23:12:30.455Z,4.90
2018-05-04T23:14:56.469Z,5.20
2018-05-04T23:17:22.486Z,5.32
2018-05-04T23:19:48.477Z,5.17
2018-05-04T23:22:26.744Z,5.10
2018-05-04T23:24:53.421Z,4.80
2018-05-04T23:27:19.531Z,5.20
2018-05-04T23:29:45.577Z,4.90
2018-05-04T23:32:11.623Z,5.00
2018-05-04T23:34:37.753Z,4.60
2018-05-04T23:37:03.924Z,5.57
2018-05-04T23:39:30.046Z,5.22
2018-05-04T23:41:56.136Z,5.30
2018-05-04T23:44:22.156Z,5.35
2018-05-04T23:46:48.136Z,5.40
2018-05-04T23:49:14.177Z,4.80
2018-05-04T23:51:40.196Z,5.10
2018-05-04T23:54:06.343Z,4.30
2018-05-04T23:56:32.404Z,4.65
2018-05-04T23:58:58.413Z,4.93
